Time;durP1;ratioP1;P1;durP2;ratioP2;P2;SDS_P1;SDS_P2;PMS_P1;PMS_P2;Temp;Humidity;BMP_temperature;BMP_pressure;BME280_temperature;BME280_humidity;BME280_pressure;Samples;Min_cycle;Max_cycle;Signal;HPM_P1;HPM_P2
2022/09/13 00:00:18;;;;;;;;;;;23.00;55.40;;;;;;4988197;28;19929;-74
2022/09/13 00:02:44;;;;;;;;;;;23.00;55.80;;;;;;5007658;28;19922;-74
2022/09/13 00:05:09;;;;;;;;;;;23.00;55.40;;;;;;5006265;28;19920;-74
2022/09/13 00:07:34;;;;;;;;;;;23.00;55.30;;;;;;5007451;28;19917;-72
2022/09/13 00:10:00;;;;;;;;;;;23.00;55.30;;;;;;5008699;28;19926;-74
2022/09/13 00:12:25;;;;;;;;;;;23.00;55.30;;;;;;5008406;28;19909;-74
2022/09/13 00:14:51;;;;;;;;;;;23.00;55.40;;;;;;5003575;28;19925;-74
2022/09/13 00:17:17;;;;;;;;;;;23.00;55.40;;;;;;5006535;28;20393;-73
2022/09/13 00:19:42;;;;;;;;;;;22.90;55.40;;;;;;5010893;28;20425;-73
2022/09/13 00:22:07;;;;;;;;;;;22.90;55.50;;;;;;5009042;28;20320;-74
2022/09/13 00:24:33;;;;;;;;;;;23.00;55.40;;;;;;5003456;28;19921;-73
2022/09/13 00:26:59;;;;;;;;;;;22.90;55.50;;;;;;5005906;28;19921;-75
2022/09/13 00:29:25;;;;;;;;;;;23.00;55.40;;;;;;4988393;28;19929;-74
2022/09/13 00:31:51;;;;;;;;;;;22.90;55.40;;;;;;5007176;28;19924;-73
2022/09/13 00:34:16;;;;;;;;;;;22.90;55.40;;;;;;4989864;28;19917;-74
2022/09/13 00:36:41;;;;;;;;;;;22.90;55.30;;;;;;5007804;28;19957;-73
2022/09/13 00:39:08;;;;;;;;;;;22.90;55.40;;;;;;5008755;28;19917;-73
2022/09/13 00:41:33;;;;;;;;;;;22.90;55.30;;;;;;5000202;28;19914;-74
2022/09/13 00:43:59;;;;;;;;;;;22.90;55.40;;;;;;5010366;28;19925;-74
2022/09/13 00:46:26;;;;;;;;;;;22.90;55.40;;;;;;5006426;28;19918;-74
2022/09/13 00:48:53;;;;;;;;;;;22.90;55.40;;;;;;4990506;28;19913;-73
2022/09/13 00:51:18;;;;;;;;;;;22.90;55.40;;;;;;5006837;28;20284;-73
2022/09/13 00:53:45;;;;;;;;;;;23.00;55.40;;;;;;5004740;28;20285;-73
2022/09/13 00:56:12;;;;;;;;;;;22.90;55.50;;;;;;5001787;28;20435;-72
2022/09/13 00:58:48;;;;;;;;;;;22.90;55.50;;;;;;5005524;28;20553;-74
2022/09/13 01:01:14;;;;;;;;;;;23.00;55.50;;;;;;5006225;28;19921;-73
2022/09/13 01:03:40;;;;;;;;;;;23.00;55.60;;;;;;5005961;28;19929;-74
2022/09/13 01:06:06;;;;;;;;;;;23.00;55.70;;;;;;5000295;28;19917;-74
2022/09/13 01:08:32;;;;;;;;;;;23.00;55.80;;;;;;4990179;28;19984;-74
2022/09/13 01:10:58;;;;;;;;;;;23.00;55.80;;;;;;5006075;28;20057;-74
2022/09/13 01:13:33;;;;;;;;;;;22.90;55.80;;;;;;4987572;28;19917;-74
2022/09/13 01:15:59;;;;;;;;;;;22.90;55.90;;;;;;4985528;28;19922;-75
2022/09/13 01:18:24;;;;;;;;;;;22.90;55.90;;;;;;5003719;28;19913;-73
2022/09/13 01:20:53;;;;;;;;;;;22.90;56.00;;;;;;5005046;28;19936;-75
2022/09/13 01:23:37;;;;;;;;;;;22.90;55.90;;;;;;5005244;28;20448;-74
2022/09/13 01:26:14;;;;;;;;;;;23.00;56.10;;;;;;5009007;28;19932;-74
2022/09/13 01:28:58;;;;;;;;;;;23.00;56.20;;;;;;5008041;28;20459;-74
2022/09/13 01:31:29;;;;;;;;;;;22.90;56.10;;;;;;5006368;28;20308;-74
2022/09/13 01:33:58;;;;;;;;;;;23.00;56.20;;;;;;5009948;28;20292;-75
2022/09/13 01:36:37;;;;;;;;;;;23.00;56.30;;;;;;5000897;28;19921;-74
2022/09/13 01:39:03;;;;;;;;;;;22.90;56.40;;;;;;4986581;28;19921;-75
2022/09/13 01:41:48;;;;;;;;;;;23.00;56.40;;;;;;5000747;28;20412;-75
2022/09/13 01:44:19;;;;;;;;;;;23.00;56.50;;;;;;5007799;28;19929;-74
2022/09/13 01:47:02;;;;;;;;;;;22.90;56.50;;;;;;4988722;28;19959;-74
2022/09/13 01:49:33;;;;;;;;;;;22.90;56.60;;;;;;4992535;28;19971;-74
2022/09/13 01:52:01;;;;;;;;;;;22.90;56.80;;;;;;5005358;28;19994;-74
2022/09/13 01:54:47;;;;;;;;;;;22.90;56.90;;;;;;5006072;28;19918;-74
2022/09/13 01:57:14;;;;;;;;;;;22.90;56.90;;;;;;5000418;28;20387;-74
2022/09/13 01:59:49;;;;;;;;;;;22.90;57.00;;;;;;5004603;28;19921;-74
2022/09/13 02:02:35;;;;;;;;;;;22.90;56.90;;;;;;5005613;28;20325;-74
2022/09/13 02:05:16;;;;;;;;;;;22.90;57.00;;;;;;4999231;28;20282;-74
2022/09/13 02:07:42;;;;;;;;;;;22.90;57.20;;;;;;5004440;28;19918;-75
2022/09/13 02:10:12;;;;;;;;;;;22.90;57.10;;;;;;4982235;28;20001;-75
2022/09/13 02:12:37;;;;;;;;;;;22.80;57.30;;;;;;5006380;28;19921;-74
2022/09/13 02:15:07;;;;;;;;;;;22.70;57.20;;;;;;5004504;28;23514;-74
2022/09/13 02:17:44;;;;;;;;;;;22.80;57.50;;;;;;5007291;28;20289;-74
2022/09/13 02:20:18;;;;;;;;;;;22.80;57.40;;;;;;5003114;28;19984;-74
2022/09/13 02:22:45;;;;;;;;;;;22.80;57.30;;;;;;5006339;28;19914;-75
2022/09/13 02:25:12;;;;;;;;;;;22.70;57.60;;;;;;5005691;28;19932;-74
2022/09/13 02:27:38;;;;;;;;;;;22.70;57.90;;;;;;5002731;28;20357;-74
2022/09/13 02:30:04;;;;;;;;;;;22.70;57.70;;;;;;5007098;28;20005;-75
2022/09/13 02:32:31;;;;;;;;;;;22.70;57.80;;;;;;4995869;28;19913;-74
2022/09/13 02:34:58;;;;;;;;;;;22.70;57.70;;;;;;5004910;28;19920;-74
2022/09/13 02:37:24;;;;;;;;;;;22.70;57.70;;;;;;4986145;28;19965;-74
2022/09/13 02:39:50;;;;;;;;;;;22.70;57.60;;;;;;5000347;28;19952;-74
2022/09/13 02:42:16;;;;;;;;;;;22.70;57.80;;;;;;5003731;28;19920;-74
2022/09/13 02:44:42;;;;;;;;;;;22.80;57.80;;;;;;5008544;28;19965;-73
2022/09/13 02:47:22;;;;;;;;;;;22.80;57.80;;;;;;5004413;28;20384;-75
2022/09/13 02:49:53;;;;;;;;;;;22.80;57.80;;;;;;5009215;28;19917;-74
2022/09/13 02:52:27;;;;;;;;;;;22.70;57.90;;;;;;5002924;28;20570;-74
2022/09/13 02:54:53;;;;;;;;;;;22.70;57.90;;;;;;5010533;28;20288;-74
2022/09/13 02:57:26;;;;;;;;;;;22.70;57.90;;;;;;5011875;28;19917;-74
2022/09/13 02:59:52;;;;;;;;;;;22.80;58.10;;;;;;5002779;28;19914;-74
2022/09/13 03:02:18;;;;;;;;;;;22.80;58.00;;;;;;5008069;28;20390;-74
2022/09/13 03:04:43;;;;;;;;;;;22.80;58.00;;;;;;5011609;28;19922;-75
2022/09/13 03:07:12;;;;;;;;;;;22.80;58.00;;;;;;5003087;28;19975;-74
2022/09/13 03:09:41;;;;;;;;;;;22.80;58.00;;;;;;5003243;28;19917;-74
2022/09/13 03:12:21;;;;;;;;;;;22.80;58.00;;;;;;5003930;28;19921;-74
2022/09/13 03:15:03;;;;;;;;;;;22.80;58.10;;;;;;5007917;28;19963;-74
2022/09/13 03:17:39;;;;;;;;;;;22.70;58.30;;;;;;4993704;28;20311;-74
2022/09/13 03:20:13;;;;;;;;;;;22.70;58.30;;;;;;5011193;28;19953;-73
2022/09/13 03:22:45;;;;;;;;;;;22.70;58.30;;;;;;5004683;28;20036;-73
2022/09/13 03:25:37;;;;;;;;;;;22.80;58.40;;;;;;5011114;28;19921;-74
2022/09/13 03:28:08;;;;;;;;;;;22.70;58.40;;;;;;4979179;28;19963;-74
2022/09/13 03:30:34;;;;;;;;;;;22.70;58.40;;;;;;5006824;28;19921;-74
2022/09/13 03:32:59;;;;;;;;;;;22.70;58.70;;;;;;5008346;28;19920;-74
2022/09/13 03:35:31;;;;;;;;;;;22.70;58.70;;;;;;5014329;28;19913;-73
2022/09/13 03:37:58;;;;;;;;;;;22.60;58.50;;;;;;5004289;28;19913;-74
2022/09/13 03:40:33;;;;;;;;;;;22.70;58.70;;;;;;4994667;28;19922;-74
2022/09/13 03:43:01;;;;;;;;;;;22.70;58.70;;;;;;5012024;28;19964;-74
2022/09/13 03:45:29;;;;;;;;;;;22.70;58.70;;;;;;5005476;28;19951;-74
2022/09/13 03:47:54;;;;;;;;;;;22.70;58.70;;;;;;4996434;28;19917;-74
2022/09/13 03:50:20;;;;;;;;;;;22.70;59.00;;;;;;5010375;28;20428;-74
2022/09/13 03:52:46;;;;;;;;;;;22.60;59.00;;;;;;4993477;28;19952;-74
2022/09/13 03:55:12;;;;;;;;;;;22.60;59.10;;;;;;5009564;28;20392;-74
2022/09/13 03:57:37;;;;;;;;;;;22.70;59.20;;;;;;5003845;28;19925;-74
2022/09/13 04:00:03;;;;;;;;;;;22.70;59.10;;;;;;5009879;28;19921;-74
2022/09/13 04:02:28;;;;;;;;;;;22.60;59.10;;;;;;5005237;28;20390;-74
2022/09/13 04:04:55;;;;;;;;;;;22.70;59.20;;;;;;5008942;28;19917;-74
2022/09/13 04:07:21;;;;;;;;;;;22.60;59.10;;;;;;4989126;28;20443;-74
2022/09/13 04:09:47;;;;;;;;;;;22.70;59.30;;;;;;5004874;28;19928;-74
2022/09/13 04:12:13;;;;;;;;;;;22.60;59.30;;;;;;4993020;28;19922;-74
2022/09/13 04:14:38;;;;;;;;;;;22.60;59.30;;;;;;5009554;28;19913;-74
2022/09/13 04:17:04;;;;;;;;;;;22.60;59.60;;;;;;4988087;28;19921;-74
2022/09/13 04:19:30;;;;;;;;;;;22.60;59.60;;;;;;4989820;28;20375;-73
2022/09/13 04:21:56;;;;;;;;;;;22.60;59.70;;;;;;5008253;28;19992;-74
2022/09/13 04:24:23;;;;;;;;;;;22.50;60.00;;;;;;5014259;28;21883;-74
2022/09/13 04:26:50;;;;;;;;;;;22.60;59.90;;;;;;5006724;28;19918;-73
2022/09/13 04:29:17;;;;;;;;;;;22.50;59.90;;;;;;4991005;28;19921;-74
2022/09/13 04:31:43;;;;;;;;;;;22.60;59.80;;;;;;5003484;28;20297;-73
2022/09/13 04:34:08;;;;;;;;;;;22.60;59.90;;;;;;5010234;28;19956;-75
2022/09/13 04:36:34;;;;;;;;;;;22.60;59.90;;;;;;5010873;28;19914;-73
2022/09/13 04:38:59;;;;;;;;;;;22.60;59.70;;;;;;5010453;28;19962;-74
2022/09/13 04:41:24;;;;;;;;;;;22.60;60.00;;;;;;5006162;28;19913;-74
2022/09/13 04:43:50;;;;;;;;;;;22.60;60.00;;;;;;4994762;28;19917;-74
2022/09/13 04:46:16;;;;;;;;;;;22.60;60.30;;;;;;4991654;28;19971;-73
2022/09/13 04:48:41;;;;;;;;;;;22.60;60.50;;;;;;5007220;28;19917;-74
2022/09/13 04:51:07;;;;;;;;;;;22.60;60.60;;;;;;5008477;28;20705;-73
2022/09/13 04:53:32;;;;;;;;;;;22.50;60.60;;;;;;5005943;28;19928;-74
2022/09/13 04:56:01;;;;;;;;;;;22.50;60.90;;;;;;4993090;28;20023;-74
2022/09/13 04:58:26;;;;;;;;;;;22.50;60.80;;;;;;4993578;28;19962;-73
2022/09/13 05:00:55;;;;;;;;;;;22.60;61.00;;;;;;5011654;28;19913;-73
2022/09/13 05:03:24;;;;;;;;;;;22.60;60.90;;;;;;5005525;28;20411;-74
2022/09/13 05:05:49;;;;;;;;;;;22.60;61.10;;;;;;4992141;28;20009;-74
2022/09/13 05:08:14;;;;;;;;;;;22.50;61.10;;;;;;5010444;28;20008;-74
2022/09/13 05:10:40;;;;;;;;;;;22.60;61.10;;;;;;5003173;28;19917;-74
2022/09/13 05:13:05;;;;;;;;;;;22.60;61.30;;;;;;5002950;28;19920;-73
2022/09/13 05:15:31;;;;;;;;;;;22.60;61.30;;;;;;4995482;28;19924;-75
2022/09/13 05:17:56;;;;;;;;;;;22.60;61.70;;;;;;5009357;28;20016;-74
2022/09/13 05:20:22;;;;;;;;;;;22.50;61.60;;;;;;5006993;28;19964;-73
2022/09/13 05:22:47;;;;;;;;;;;22.50;61.80;;;;;;5006583;28;20225;-73
2022/09/13 05:25:13;;;;;;;;;;;22.50;61.80;;;;;;5005758;28;19925;-74
2022/09/13 05:27:38;;;;;;;;;;;22.50;61.90;;;;;;5008510;28;19918;-75
2022/09/13 05:30:04;;;;;;;;;;;22.60;61.80;;;;;;5013014;28;19967;-73
2022/09/13 05:32:30;;;;;;;;;;;22.60;62.00;;;;;;5012891;28;20348;-74
2022/09/13 05:34:55;;;;;;;;;;;22.60;62.80;;;;;;5003375;28;19918;-74
2022/09/13 05:37:20;;;;;;;;;;;22.60;62.10;;;;;;5008725;28;20012;-74
2022/09/13 05:39:46;;;;;;;;;;;22.60;62.20;;;;;;4991313;28;19920;-74
2022/09/13 05:42:11;;;;;;;;;;;22.60;62.20;;;;;;5004646;28;20722;-74
2022/09/13 05:44:37;;;;;;;;;;;22.60;61.80;;;;;;5002850;28;20004;-74
2022/09/13 05:47:02;;;;;;;;;;;22.60;62.00;;;;;;5011084;28;19924;-74
2022/09/13 05:49:28;;;;;;;;;;;22.50;62.00;;;;;;4994551;28;19972;-75
2022/09/13 05:51:53;;;;;;;;;;;22.50;62.20;;;;;;5009602;28;19929;-74
2022/09/13 05:54:19;;;;;;;;;;;22.50;62.20;;;;;;5012464;28;19956;-73
2022/09/13 05:56:44;;;;;;;;;;;22.60;62.40;;;;;;5009219;28;19913;-73
2022/09/13 05:59:10;;;;;;;;;;;22.50;62.50;;;;;;4991099;28;19936;-74
2022/09/13 06:01:36;;;;;;;;;;;22.60;62.30;;;;;;5007694;28;19928;-74
2022/09/13 06:04:01;;;;;;;;;;;22.60;62.50;;;;;;4985731;28;19926;-74
2022/09/13 06:06:27;;;;;;;;;;;22.60;62.60;;;;;;4995146;28;19918;-74
2022/09/13 06:08:55;;;;;;;;;;;22.50;62.60;;;;;;4992276;28;19914;-74
2022/09/13 06:11:21;;;;;;;;;;;22.40;62.50;;;;;;5009683;28;20277;-73
2022/09/13 06:13:47;;;;;;;;;;;22.60;62.60;;;;;;5005899;28;19920;-74
2022/09/13 06:16:15;;;;;;;;;;;22.60;62.90;;;;;;5012547;28;19932;-74
2022/09/13 06:18:41;;;;;;;;;;;22.50;63.00;;;;;;5011256;28;20000;-74
2022/09/13 06:21:07;;;;;;;;;;;22.50;63.00;;;;;;5006775;28;19972;-74
2022/09/13 06:23:33;;;;;;;;;;;22.50;63.50;;;;;;5014310;28;20374;-73
2022/09/13 06:26:08;;;;;;;;;;;22.60;63.00;;;;;;5009695;28;19926;-74
2022/09/13 06:28:34;;;;;;;;;;;22.60;63.20;;;;;;4997046;28;19988;-74
2022/09/13 06:31:00;;;;;;;;;;;22.50;63.30;;;;;;5007845;28;20012;-74
2022/09/13 06:33:26;;;;;;;;;;;22.50;63.30;;;;;;5009333;28;19913;-74
2022/09/13 06:35:51;;;;;;;;;;;22.50;63.40;;;;;;5009529;28;19917;-74
2022/09/13 06:38:17;;;;;;;;;;;22.40;63.70;;;;;;5006468;28;19924;-74
2022/09/13 06:40:43;;;;;;;;;;;22.40;63.80;;;;;;4993571;28;19920;-74
2022/09/13 06:43:09;;;;;;;;;;;22.40;63.70;;;;;;5011129;28;19917;-74
2022/09/13 06:45:36;;;;;;;;;;;22.40;64.00;;;;;;5015767;28;19917;-74
2022/09/13 06:48:01;;;;;;;;;;;22.40;63.90;;;;;;4993168;28;19921;-74
2022/09/13 06:50:27;;;;;;;;;;;22.40;63.70;;;;;;5009953;28;20028;-74
2022/09/13 06:52:52;;;;;;;;;;;22.50;63.80;;;;;;5011204;28;19913;-73
2022/09/13 06:55:17;;;;;;;;;;;22.50;63.70;;;;;;5014819;28;19921;-75
2022/09/13 06:57:43;;;;;;;;;;;22.40;63.90;;;;;;5011537;28;20288;-75
2022/09/13 07:00:09;;;;;;;;;;;22.30;64.40;;;;;;5010423;28;20438;-75
2022/09/13 07:02:34;;;;;;;;;;;22.20;65.00;;;;;;5013287;28;20392;-74
2022/09/13 07:05:00;;;;;;;;;;;22.10;65.40;;;;;;5009555;28;19928;-73
2022/09/13 07:07:25;;;;;;;;;;;22.10;65.70;;;;;;5007727;28;19918;-74
2022/09/13 07:09:50;;;;;;;;;;;22.00;65.80;;;;;;4995378;28;19918;-74
2022/09/13 07:12:16;;;;;;;;;;;22.00;66.20;;;;;;5012160;28;19941;-74
2022/09/13 07:14:41;;;;;;;;;;;22.00;66.20;;;;;;5010378;28;19976;-74
2022/09/13 07:17:07;;;;;;;;;;;22.00;66.40;;;;;;5007997;28;19918;-73
2022/09/13 07:19:32;;;;;;;;;;;22.00;66.30;;;;;;4995157;28;19921;-73
2022/09/13 07:21:58;;;;;;;;;;;22.00;66.30;;;;;;5013191;28;20004;-73
2022/09/13 07:24:23;;;;;;;;;;;22.00;66.40;;;;;;5015433;28;19925;-73
2022/09/13 07:26:49;;;;;;;;;;;22.00;66.50;;;;;;5014148;28;19917;-73
2022/09/13 07:29:17;;;;;;;;;;;21.90;66.60;;;;;;4995151;28;20516;-74
2022/09/13 07:31:43;;;;;;;;;;;22.00;66.90;;;;;;5009287;28;19978;-75
2022/09/13 07:34:11;;;;;;;;;;;22.00;66.80;;;;;;5013377;28;19917;-74
2022/09/13 07:36:36;;;;;;;;;;;22.00;66.80;;;;;;4998678;28;19909;-74
2022/09/13 07:39:02;;;;;;;;;;;22.00;66.80;;;;;;5013618;28;19920;-74
2022/09/13 07:41:28;;;;;;;;;;;22.00;66.90;;;;;;5014320;28;20300;-74
2022/09/13 07:43:53;;;;;;;;;;;21.90;66.90;;;;;;5014974;28;19924;-74
2022/09/13 07:46:20;;;;;;;;;;;22.00;67.10;;;;;;5017930;28;19918;-73
2022/09/13 07:48:45;;;;;;;;;;;22.00;66.90;;;;;;4998741;28;20285;-74
2022/09/13 07:51:12;;;;;;;;;;;22.00;66.90;;;;;;5014374;28;20365;-74
2022/09/13 07:53:37;;;;;;;;;;;22.00;66.90;;;;;;5014379;28;20361;-74
2022/09/13 07:56:07;;;;;;;;;;;22.00;67.10;;;;;;5007084;28;19921;-73
2022/09/13 07:58:32;;;;;;;;;;;22.00;67.00;;;;;;5005297;28;19924;-73
2022/09/13 08:01:05;;;;;;;;;;;22.00;67.50;;;;;;4997684;28;19921;-74
2022/09/13 08:03:31;;;;;;;;;;;21.90;67.60;;;;;;5012532;28;20352;-75
2022/09/13 08:05:57;;;;;;;;;;;21.90;67.60;;;;;;5009361;28;19917;-73
2022/09/13 08:08:22;;;;;;;;;;;22.00;67.60;;;;;;5012378;28;19964;-74
2022/09/13 08:10:48;;;;;;;;;;;21.90;67.70;;;;;;5008055;28;19917;-74
2022/09/13 08:13:16;;;;;;;;;;;21.90;67.80;;;;;;5010830;28;19914;-74
2022/09/13 08:15:42;;;;;;;;;;;21.90;67.80;;;;;;5014265;28;19917;-73
2022/09/13 08:18:08;;;;;;;;;;;21.90;67.70;;;;;;5013836;28;19960;-73
2022/09/13 08:20:37;;;;;;;;;;;21.90;67.70;;;;;;5004093;28;19988;-74
2022/09/13 08:23:03;;;;;;;;;;;21.90;67.60;;;;;;5015469;28;20385;-74
2022/09/13 08:25:30;;;;;;;;;;;21.90;67.70;;;;;;4997118;28;19920;-74
2022/09/13 08:27:56;;;;;;;;;;;21.90;67.80;;;;;;4998717;28;19918;-74
2022/09/13 08:30:21;;;;;;;;;;;21.90;67.90;;;;;;5006745;28;22398;-74
2022/09/13 08:32:48;;;;;;;;;;;21.90;67.70;;;;;;4998000;28;20419;-74
2022/09/13 08:35:14;;;;;;;;;;;21.90;67.70;;;;;;5009948;28;20067;-74
2022/09/13 08:37:39;;;;;;;;;;;21.90;67.40;;;;;;4997638;28;20032;-75
2022/09/13 08:40:05;;;;;;;;;;;22.00;67.30;;;;;;5015797;28;19925;-74
2022/09/13 08:42:51;;;;;;;;;;;22.00;67.10;;;;;;5008209;28;19928;-73
2022/09/13 08:45:16;;;;;;;;;;;22.10;67.10;;;;;;5018597;28;19970;-74
2022/09/13 08:47:42;;;;;;;;;;;22.10;67.10;;;;;;5012940;28;19995;-74
2022/09/13 08:50:17;;;;;;;;;;;22.00;67.00;;;;;;5016078;28;19916;-73
2022/09/13 08:52:54;;;;;;;;;;;22.00;67.10;;;;;;5010271;28;19925;-74
2022/09/13 08:55:22;;;;;;;;;;;22.00;67.10;;;;;;5003468;28;20772;-74
2022/09/13 08:57:51;;;;;;;;;;;22.00;67.00;;;;;;5007714;28;20281;-73
2022/09/13 09:00:21;;;;;;;;;;;22.00;67.00;;;;;;5006709;28;19917;-75
2022/09/13 09:02:47;;;;;;;;;;;22.00;66.90;;;;;;5010710;28;19920;-72
2022/09/13 09:05:16;;;;;;;;;;;22.00;66.80;;;;;;5018503;28;20385;-74
2022/09/13 09:07:44;;;;;;;;;;;22.00;66.30;;;;;;5005223;28;19917;-73
2022/09/13 09:10:23;;;;;;;;;;;22.10;65.90;;;;;;5006238;28;19913;-73
2022/09/13 09:12:49;;;;;;;;;;;22.20;65.70;;;;;;5017146;28;19921;-72
2022/09/13 09:15:15;;;;;;;;;;;22.10;65.50;;;;;;5005094;28;19937;-73
2022/09/13 09:17:49;;;;;;;;;;;22.20;65.00;;;;;;5009356;28;19941;-74
2022/09/13 09:20:35;;;;;;;;;;;22.40;64.50;;;;;;5014399;28;19945;-74
2022/09/13 09:23:02;;;;;;;;;;;22.50;64.00;;;;;;5008244;28;20383;-75
2022/09/13 09:25:27;;;;;;;;;;;22.40;64.00;;;;;;5008247;28;19925;-74
2022/09/13 09:27:53;;;;;;;;;;;22.30;64.10;;;;;;5011089;28;19914;-74
2022/09/13 09:30:18;;;;;;;;;;;22.30;64.00;;;;;;5006033;28;19917;-74
2022/09/13 09:32:46;;;;;;;;;;;22.30;64.10;;;;;;5010676;28;19917;-75
2022/09/13 09:35:18;;;;;;;;;;;22.30;63.90;;;;;;5008132;28;19921;-74
2022/09/13 09:37:46;;;;;;;;;;;22.30;63.70;;;;;;5010643;28;20289;-74
2022/09/13 09:40:12;;;;;;;;;;;22.40;63.40;;;;;;5007753;28;20353;-73
2022/09/13 09:42:41;;;;;;;;;;;22.50;62.80;;;;;;5004826;28;19953;-74
2022/09/13 09:45:22;;;;;;;;;;;22.60;62.30;;;;;;5012126;28;19916;-74
2022/09/13 09:47:48;;;;;;;;;;;22.60;61.60;;;;;;5015804;28;20369;-74
2022/09/13 09:50:16;;;;;;;;;;;22.40;62.00;;;;;;5005254;28;19913;-74
2022/09/13 09:52:42;;;;;;;;;;;22.30;62.20;;;;;;5004052;28;19925;-74
2022/09/13 09:55:19;;;;;;;;;;;22.40;62.30;;;;;;5014211;28;19913;-73
2022/09/13 09:57:49;;;;;;;;;;;22.40;62.10;;;;;;5008559;28;19920;-72
2022/09/13 10:00:14;;;;;;;;;;;22.40;61.40;;;;;;5015297;28;19921;-74
2022/09/13 10:02:43;;;;;;;;;;;22.50;61.80;;;;;;5011872;28;19917;-73
2022/09/13 10:05:08;;;;;;;;;;;22.50;60.70;;;;;;5008624;28;19925;-73
2022/09/13 10:07:34;;;;;;;;;;;22.50;60.60;;;;;;4990597;28;20289;-75
2022/09/13 10:10:22;;;;;;;;;;;22.50;60.50;;;;;;5012131;28;20020;-74
2022/09/13 10:12:51;;;;;;;;;;;22.50;60.60;;;;;;4996930;28;19914;-74
2022/09/13 10:15:18;;;;;;;;;;;22.50;60.30;;;;;;5005547;28;19925;-73
2022/09/13 10:17:59;;;;;;;;;;;22.60;60.20;;;;;;4992045;28;19918;-73
2022/09/13 10:20:25;;;;;;;;;;;22.70;59.20;;;;;;4994391;28;20685;-74
2022/09/13 10:23:09;;;;;;;;;;;22.60;58.70;;;;;;4999834;28;20449;-74
2022/09/13 10:25:36;;;;;;;;;;;22.60;58.70;;;;;;4996641;28;19917;-74
2022/09/13 10:28:02;;;;;;;;;;;22.60;58.70;;;;;;5007145;28;19925;-73
2022/09/13 10:30:35;;;;;;;;;;;22.70;57.80;;;;;;4994695;28;20386;-74
2022/09/13 10:33:01;;;;;;;;;;;22.60;57.40;;;;;;5006879;28;19918;-74
2022/09/13 10:35:27;;;;;;;;;;;22.50;57.10;;;;;;4997057;28;19961;-74
2022/09/13 10:37:52;;;;;;;;;;;22.60;56.90;;;;;;5008823;28;19965;-73
2022/09/13 10:40:25;;;;;;;;;;;22.70;56.70;;;;;;5006409;28;20717;-74
2022/09/13 10:43:02;;;;;;;;;;;22.60;56.10;;;;;;5007182;28;19925;-75
2022/09/13 10:45:28;;;;;;;;;;;22.60;56.00;;;;;;5006614;28;20081;-74
2022/09/13 10:47:54;;;;;;;;;;;22.60;55.80;;;;;;5005845;28;19918;-74
2022/09/13 10:50:21;;;;;;;;;;;22.60;56.00;;;;;;4987684;28;19922;-74
2022/09/13 10:52:47;;;;;;;;;;;22.60;55.50;;;;;;5004004;28;19921;-74
2022/09/13 10:55:17;;;;;;;;;;;22.60;55.40;;;;;;4996828;28;19963;-75
2022/09/13 10:57:42;;;;;;;;;;;22.70;55.20;;;;;;5008823;28;19918;-74
2022/09/13 11:00:10;;;;;;;;;;;22.60;54.90;;;;;;5004323;28;19959;-74
2022/09/13 11:02:54;;;;;;;;;;;22.60;54.80;;;;;;4992081;28;19922;-72
2022/09/13 11:05:29;;;;;;;;;;;22.50;54.90;;;;;;4985796;28;19938;-74
2022/09/13 11:07:55;;;;;;;;;;;22.50;55.00;;;;;;4992989;28;20293;-74
2022/09/13 11:10:20;;;;;;;;;;;22.60;54.80;;;;;;4992439;28;19918;-74
2022/09/13 11:12:55;;;;;;;;;;;22.60;54.70;;;;;;4996738;28;20333;-75
2022/09/13 11:15:39;;;;;;;;;;;22.60;54.60;;;;;;4993504;28;20738;-74
2022/09/13 11:18:04;;;;;;;;;;;22.60;54.60;;;;;;4996224;28;19929;-74
2022/09/13 11:20:49;;;;;;;;;;;22.50;54.50;;;;;;4994622;28;20285;-74
2022/09/13 11:23:17;;;;;;;;;;;22.50;54.70;;;;;;4995650;28;19922;-73
2022/09/13 11:25:43;;;;;;;;;;;22.50;54.70;;;;;;4992215;28;20286;-74
2022/09/13 11:28:31;;;;;;;;;;;22.50;54.40;;;;;;4993808;28;19918;-74
2022/09/13 11:30:56;;;;;;;;;;;22.60;54.40;;;;;;5004490;28;20007;-73
2022/09/13 11:33:27;;;;;;;;;;;22.60;54.10;;;;;;4994947;28;19949;-73
2022/09/13 11:36:15;;;;;;;;;;;22.60;54.00;;;;;;5008374;28;19920;-73
2022/09/13 11:39:01;;;;;;;;;;;22.60;54.10;;;;;;4991061;28;19914;-74
2022/09/13 11:41:27;;;;;;;;;;;22.60;54.10;;;;;;5004449;28;19913;-74
2022/09/13 11:44:04;;;;;;;;;;;22.50;54.10;;;;;;4995228;28;19917;-72
2022/09/13 11:46:39;;;;;;;;;;;22.60;54.00;;;;;;4994232;28;19929;-73
2022/09/13 11:49:14;;;;;;;;;;;22.50;53.90;;;;;;5008951;28;19936;-73
2022/09/13 11:51:49;;;;;;;;;;;22.50;54.20;;;;;;4993964;28;19963;-74
2022/09/13 11:54:21;;;;;;;;;;;22.50;54.10;;;;;;5000762;28;19918;-74
2022/09/13 11:56:51;;;;;;;;;;;22.50;54.00;;;;;;4993500;28;20008;-73
2022/09/13 11:59:18;;;;;;;;;;;22.60;54.20;;;;;;5011878;28;20012;-74
2022/09/13 12:01:44;;;;;;;;;;;22.50;54.10;;;;;;4994842;28;19918;-73
2022/09/13 12:04:12;;;;;;;;;;;22.50;53.90;;;;;;5004937;28;19936;-74
2022/09/13 12:06:39;;;;;;;;;;;22.50;53.80;;;;;;5004308;28;19925;-74
2022/09/13 12:09:06;;;;;;;;;;;22.60;53.60;;;;;;5006900;28;19972;-74
2022/09/13 12:11:39;;;;;;;;;;;22.60;53.50;;;;;;4991766;28;20047;-74
2022/09/13 12:14:23;;;;;;;;;;;22.60;53.50;;;;;;4987054;28;19920;-74
2022/09/13 12:16:49;;;;;;;;;;;22.60;53.30;;;;;;5010077;28;19917;-74
2022/09/13 12:19:20;;;;;;;;;;;22.70;53.10;;;;;;5003239;28;20069;-72
2022/09/13 12:21:45;;;;;;;;;;;22.70;52.90;;;;;;5002253;28;20389;-73
2022/09/13 12:24:15;;;;;;;;;;;22.70;52.80;;;;;;5007236;28;20058;-73
2022/09/13 12:26:59;;;;;;;;;;;22.70;52.90;;;;;;4993637;28;21286;-73
2022/09/13 12:29:30;;;;;;;;;;;22.70;52.80;;;;;;5007758;28;20056;-73
2022/09/13 12:31:57;;;;;;;;;;;22.60;52.90;;;;;;4986522;28;20015;-74
2022/09/13 12:34:25;;;;;;;;;;;22.60;52.80;;;;;;4995064;28;19914;-74
2022/09/13 12:36:54;;;;;;;;;;;22.60;52.60;;;;;;5008149;28;19918;-73
2022/09/13 12:39:30;;;;;;;;;;;22.60;52.80;;;;;;5004097;28;19984;-74
2022/09/13 12:42:05;;;;;;;;;;;22.60;52.60;;;;;;4991141;28;19925;-73
2022/09/13 12:44:45;;;;;;;;;;;22.60;52.50;;;;;;4992653;28;19926;-73
2022/09/13 12:47:23;;;;;;;;;;;22.60;52.40;;;;;;4993719;28;19918;-73
2022/09/13 12:49:52;;;;;;;;;;;22.70;52.50;;;;;;4994865;28;19918;-74
2022/09/13 12:52:21;;;;;;;;;;;22.70;52.40;;;;;;5008459;28;19917;-74
2022/09/13 12:55:05;;;;;;;;;;;22.70;52.50;;;;;;4995019;28;20400;-74
2022/09/13 12:57:40;;;;;;;;;;;22.60;52.50;;;;;;4993225;28;19922;-72
2022/09/13 13:00:16;;;;;;;;;;;22.70;52.50;;;;;;4990566;28;19918;-74
2022/09/13 13:02:43;;;;;;;;;;;22.70;52.50;;;;;;4987208;28;19918;-74
2022/09/13 13:05:29;;;;;;;;;;;22.60;52.50;;;;;;4987096;28;19934;-73
2022/09/13 13:08:02;;;;;;;;;;;22.70;52.50;;;;;;4992079;28;19922;-72
2022/09/13 13:10:31;;;;;;;;;;;22.80;52.60;;;;;;5006349;28;19996;-73
2022/09/13 13:13:16;;;;;;;;;;;22.70;52.40;;;;;;4970295;28;19938;-74
2022/09/13 13:15:42;;;;;;;;;;;22.70;52.70;;;;;;4972334;28;19919;-73
2022/09/13 13:18:21;;;;;;;;;;;22.70;52.70;;;;;;4975957;28;19933;-73
2022/09/13 13:20:53;;;;;;;;;;;22.60;52.90;;;;;;4982016;28;20354;-72
2022/09/13 13:23:22;;;;;;;;;;;22.60;53.20;;;;;;4969913;28;20071;-73
2022/09/13 13:25:53;;;;;;;;;;;22.60;53.30;;;;;;4971122;28;19966;-73
2022/09/13 13:28:37;;;;;;;;;;;22.70;53.10;;;;;;4970032;28;20453;-73
2022/09/13 13:31:03;;;;;;;;;;;22.70;53.10;;;;;;4983787;28;19918;-73
2022/09/13 13:33:30;;;;;;;;;;;22.80;53.00;;;;;;4965950;28;20040;-74
2022/09/13 13:35:56;;;;;;;;;;;22.80;52.90;;;;;;4962770;28;19915;-73
2022/09/13 13:38:21;;;;;;;;;;;22.80;52.90;;;;;;4981412;28;19925;-73
2022/09/13 13:40:49;;;;;;;;;;;22.80;53.00;;;;;;4968928;28;19914;-73
2022/09/13 13:43:15;;;;;;;;;;;22.80;53.10;;;;;;4964323;28;19918;-75
2022/09/13 13:45:54;;;;;;;;;;;22.80;53.10;;;;;;4963987;28;19928;-74
2022/09/13 13:48:33;;;;;;;;;;;22.70;53.20;;;;;;4978611;28;19922;-74
2022/09/13 13:51:31;;;;;;;;;;;22.80;53.20;;;;;;4980948;28;19918;-76
2022/09/13 13:53:58;;;;;;;;;;;22.80;53.20;;;;;;4971838;28;20639;-75
2022/09/13 13:56:25;;;;;;;;;;;22.70;53.20;;;;;;4987365;28;20614;-74
2022/09/13 13:58:55;;;;;;;;;;;22.70;53.20;;;;;;4989045;28;19914;-74
2022/09/13 14:01:24;;;;;;;;;;;22.80;53.00;;;;;;4970944;28;19976;-75
2022/09/13 14:04:09;;;;;;;;;;;22.90;52.70;;;;;;4996945;28;19941;-75
2022/09/13 14:06:46;;;;;;;;;;;22.80;52.90;;;;;;4995325;28;19914;-73
2022/09/13 14:09:15;;;;;;;;;;;22.70;53.20;;;;;;5004296;28;19925;-73
2022/09/13 14:11:59;;;;;;;;;;;22.70;53.50;;;;;;4996320;28;19925;-74
2022/09/13 14:14:43;;;;;;;;;;;22.70;53.80;;;;;;4986588;28;19918;-73
2022/09/13 14:17:23;;;;;;;;;;;22.70;53.80;;;;;;4993911;28;19917;-74
2022/09/13 14:19:49;;;;;;;;;;;22.80;53.70;;;;;;4991590;28;19918;-73
2022/09/13 14:22:18;;;;;;;;;;;22.90;53.80;;;;;;4995297;28;19925;-74
2022/09/13 14:24:48;;;;;;;;;;;22.80;53.90;;;;;;5009566;28;19961;-73
2022/09/13 14:27:15;;;;;;;;;;;22.70;54.00;;;;;;4993736;28;20284;-72